sensor_id;sensor_type;location;lat;lon;timestamp;pressure;altitude;pressure_sealevel;temperature;humidity
59987;BME280;46181;51.498;5.392;2023-09-18T00:00:00;100492.9;;;25.28;62.8877
59987;BME280;46181;51.498;5.392;2023-09-18T00:04:30;100476.3;;;25.27;62.96777
59987;BME280;46181;51.498;5.392;2023-09-18T00:09:00;100475.8;;;25.24;62.89453
59987;BME280;46181;51.498;5.392;2023-09-18T00:13:30;100473.1;;;25.21;62.88965
59987;BME280;46181;51.498;5.392;2023-09-18T00:18:00;100464;;;25.19;63.00488
59987;BME280;46181;51.498;5.392;2023-09-18T00:22:30;100447.4;;;25.19;62.91113
59987;BME280;46181;51.498;5.392;2023-09-18T00:27:00;100440.7;;;25.19;62.95801
59987;BME280;46181;51.498;5.392;2023-09-18T00:31:30;100431.8;;;25.17;62.99023
59987;BME280;46181;51.498;5.392;2023-09-18T00:36:00;100421.9;;;25.17;62.93262
59987;BME280;46181;51.498;5.392;2023-09-18T00:40:30;100414.1;;;25.15;62.91699
59987;BME280;46181;51.498;5.392;2023-09-18T00:45:00;100406.4;;;25.15;62.92871
59987;BME280;46181;51.498;5.392;2023-09-18T00:49:31;100400.1;;;25.14;63.04199
59987;BME280;46181;51.498;5.392;2023-09-18T00:54:00;100402.3;;;25.16;63.05664
59987;BME280;46181;51.498;5.392;2023-09-18T00:58:30;100385.4;;;25.15;62.94043
59987;BME280;46181;51.498;5.392;2023-09-18T01:03:00;100379.2;;;25.15;63.06836
59987;BME280;46181;51.498;5.392;2023-09-18T01:07:30;100362.6;;;25.14;63.04199
59987;BME280;46181;51.498;5.392;2023-09-18T01:12:05;100349.9;;;25.1;63.04883
59987;BME280;46181;51.498;5.392;2023-09-18T01:16:35;100343.4;;;25.13;62.88965
59987;BME280;46181;51.498;5.392;2023-09-18T01:21:00;100333;;;25.18;62.80469
59987;BME280;46181;51.498;5.392;2023-09-18T01:25:30;100337.8;;;25.17;62.78125
59987;BME280;46181;51.498;5.392;2023-09-18T01:30:00;100334.3;;;25.18;62.71191
59987;BME280;46181;51.498;5.392;2023-09-18T01:34:35;100336.9;;;25.16;62.75586
59987;BME280;46181;51.498;5.392;2023-09-18T01:39:00;100347.4;;;25.15;62.64941
59987;BME280;46181;51.498;5.392;2023-09-18T01:43:30;100344.4;;;25.16;62.59277
59987;BME280;46181;51.498;5.392;2023-09-18T01:48:00;100348.3;;;25.17;62.52539
59987;BME280;46181;51.498;5.392;2023-09-18T01:52:30;100342.7;;;25.2;62.48145
59987;BME280;46181;51.498;5.392;2023-09-18T01:57:00;100334.5;;;25.21;62.32031
59987;BME280;46181;51.498;5.392;2023-09-18T02:01:30;100327;;;25.2;62.30762
59987;BME280;46181;51.498;5.392;2023-09-18T02:06:00;100325.1;;;25.23;62.3125
59987;BME280;46181;51.498;5.392;2023-09-18T02:10:30;100322.2;;;25.23;62.26563
59987;BME280;46181;51.498;5.392;2023-09-18T02:15:00;100328.6;;;25.25;62.30273
59987;BME280;46181;51.498;5.392;2023-09-18T02:19:30;100324.8;;;25.27;62.23535
59987;BME280;46181;51.498;5.392;2023-09-18T02:24:02;100308.6;;;25.26;62.25684
59987;BME280;46181;51.498;5.392;2023-09-18T02:28:30;100293.1;;;25.28;62.27148
59987;BME280;46181;51.498;5.392;2023-09-18T02:33:00;100279.8;;;25.28;62.27148
59987;BME280;46181;51.498;5.392;2023-09-18T02:37:30;100274.9;;;25.26;62.30273
59987;BME280;46181;51.498;5.392;2023-09-18T02:42:00;100271.5;;;25.25;62.43066
59987;BME280;46181;51.498;5.392;2023-09-18T02:46:30;100254;;;25.26;62.40723
59987;BME280;46181;51.498;5.392;2023-09-18T02:51:00;100246.5;;;25.24;62.37109
59987;BME280;46181;51.498;5.392;2023-09-18T02:55:30;100257.7;;;25.23;62.32422
59987;BME280;46181;51.498;5.392;2023-09-18T03:00:00;100235;;;25.24;62.23047
59987;BME280;46181;51.498;5.392;2023-09-18T03:04:31;100228.3;;;25.26;62.22168
59987;BME280;46181;51.498;5.392;2023-09-18T03:09:00;100217.3;;;25.28;62.20215
59987;BME280;46181;51.498;5.392;2023-09-18T03:13:30;100207.6;;;25.29;62.06348
59987;BME280;46181;51.498;5.392;2023-09-18T03:18:02;100196.3;;;25.31;61.97363
59987;BME280;46181;51.498;5.392;2023-09-18T03:22:30;100217.3;;;25.35;61.93262
59987;BME280;46181;51.498;5.392;2023-09-18T03:27:00;100218.4;;;25.35;61.82813
59987;BME280;46181;51.498;5.392;2023-09-18T03:31:30;100226;;;25.36;61.86426
59987;BME280;46181;51.498;5.392;2023-09-18T03:36:01;100231.1;;;25.34;61.96582
59987;BME280;46181;51.498;5.392;2023-09-18T03:40:30;100237.3;;;25.32;61.92969
59987;BME280;46181;51.498;5.392;2023-09-18T03:45:00;100226.6;;;25.31;61.97363
59987;BME280;46181;51.498;5.392;2023-09-18T03:49:30;100232.1;;;25.28;62.09766
59987;BME280;46181;51.498;5.392;2023-09-18T03:54:00;100229.7;;;25.3;62.2168
59987;BME280;46181;51.498;5.392;2023-09-18T03:58:30;100221.3;;;25.28;62.22559
59987;BME280;46181;51.498;5.392;2023-09-18T04:03:00;100240.9;;;25.26;62.33789
59987;BME280;46181;51.498;5.392;2023-09-18T04:07:30;100258.7;;;25.21;62.54199
59987;BME280;46181;51.498;5.392;2023-09-18T04:12:00;100253.2;;;25.21;62.71484
59987;BME280;46181;51.498;5.392;2023-09-18T04:16:33;100244;;;25.14;62.99609
59987;BME280;46181;51.498;5.392;2023-09-18T04:21:00;100236.7;;;25.11;63.27051
59987;BME280;46181;51.498;5.392;2023-09-18T04:25:30;100213.2;;;25.06;63.4502
59987;BME280;46181;51.498;5.392;2023-09-18T04:30:00;100214.2;;;25.06;63.65918
59987;BME280;46181;51.498;5.392;2023-09-18T04:34:30;100207.6;;;25.1;63.72266
59987;BME280;46181;51.498;5.392;2023-09-18T04:39:00;100209;;;25.11;63.85156
59987;BME280;46181;51.498;5.392;2023-09-18T04:43:30;100170.5;;;25.12;63.84082
59987;BME280;46181;51.498;5.392;2023-09-18T04:48:00;100164.3;;;25.1;63.88477
59987;BME280;46181;51.498;5.392;2023-09-18T04:52:30;100155.5;;;25.08;63.96289
59987;BME280;46181;51.498;5.392;2023-09-18T04:57:00;100155.5;;;25.07;63.98438
59987;BME280;46181;51.498;5.392;2023-09-18T05:01:30;100151.1;;;25.04;64.00488
59987;BME280;46181;51.498;5.392;2023-09-18T05:06:01;100150.5;;;24.98;64.07715
59987;BME280;46181;51.498;5.392;2023-09-18T05:10:30;100152.2;;;24.96;64.19141
59987;BME280;46181;51.498;5.392;2023-09-18T05:15:00;100159.3;;;24.95;64.15332
59987;BME280;46181;51.498;5.392;2023-09-18T05:19:30;100163.7;;;24.91;63.9873
59987;BME280;46181;51.498;5.392;2023-09-18T05:24:00;100173.3;;;24.85;63.87305
59987;BME280;46181;51.498;5.392;2023-09-18T05:28:30;100175.6;;;24.8;63.82031
59987;BME280;46181;51.498;5.392;2023-09-18T05:33:01;100159.4;;;24.77;63.67578
59987;BME280;46181;51.498;5.392;2023-09-18T05:37:30;100160.9;;;24.73;63.44824
59987;BME280;46181;51.498;5.392;2023-09-18T05:42:00;100163.8;;;24.7;63.35156
59987;BME280;46181;51.498;5.392;2023-09-18T05:46:30;100166.3;;;24.67;63.17578
59987;BME280;46181;51.498;5.392;2023-09-18T05:51:00;100188.4;;;24.63;62.92676
59987;BME280;46181;51.498;5.392;2023-09-18T05:55:30;100178.7;;;24.59;62.79102
59987;BME280;46181;51.498;5.392;2023-09-18T06:00:00;100187.3;;;24.57;62.68457
59987;BME280;46181;51.498;5.392;2023-09-18T06:04:30;100195.9;;;24.51;62.56055
59987;BME280;46181;51.498;5.392;2023-09-18T06:09:00;100197.2;;;24.51;62.4668
59987;BME280;46181;51.498;5.392;2023-09-18T06:13:30;100204.7;;;24.48;62.42969
59987;BME280;46181;51.498;5.392;2023-09-18T06:18:00;100201.7;;;24.47;62.39258
59987;BME280;46181;51.498;5.392;2023-09-18T06:22:30;100206.1;;;24.46;62.44922
59987;BME280;46181;51.498;5.392;2023-09-18T06:27:00;100215.9;;;24.46;62.32129
59987;BME280;46181;51.498;5.392;2023-09-18T06:31:30;100215.3;;;24.46;62.24023
59987;BME280;46181;51.498;5.392;2023-09-18T06:36:00;100214.9;;;24.46;62.27441
59987;BME280;46181;51.498;5.392;2023-09-18T06:40:30;100226.8;;;24.47;62.18359
59987;BME280;46181;51.498;5.392;2023-09-18T06:45:00;100225.5;;;24.46;62.20508
59987;BME280;46181;51.498;5.392;2023-09-18T06:49:30;100232.4;;;24.52;62.15625
59987;BME280;46181;51.498;5.392;2023-09-18T06:54:00;100241;;;24.57;62.37109
59987;BME280;46181;51.498;5.392;2023-09-18T06:58:30;100252;;;24.65;62.28906
59987;BME280;46181;51.498;5.392;2023-09-18T07:03:00;100258;;;24.68;61.99219
59987;BME280;46181;51.498;5.392;2023-09-18T07:07:30;100248.6;;;24.71;61.95117
59987;BME280;46181;51.498;5.392;2023-09-18T07:12:00;100255.6;;;24.73;61.75391
59987;BME280;46181;51.498;5.392;2023-09-18T07:16:30;100258.8;;;24.74;61.48926
59987;BME280;46181;51.498;5.392;2023-09-18T07:21:00;100264.7;;;24.76;61.44629
59987;BME280;46181;51.498;5.392;2023-09-18T07:25:30;100264;;;24.81;61.39258
59987;BME280;46181;51.498;5.392;2023-09-18T07:30:00;100270.9;;;24.84;61.22363
59987;BME280;46181;51.498;5.392;2023-09-18T07:34:30;100272.2;;;24.82;61.04688
59987;BME280;46181;51.498;5.392;2023-09-18T07:39:00;100272.2;;;24.87;60.84473
59987;BME280;46181;51.498;5.392;2023-09-18T07:43:33;100282.1;;;24.91;60.9082
59987;BME280;46181;51.498;5.392;2023-09-18T07:48:00;100276.2;;;24.95;60.50781
59987;BME280;46181;51.498;5.392;2023-09-18T07:52:30;100276.4;;;24.98;60.51074
59987;BME280;46181;51.498;5.392;2023-09-18T07:57:00;100280.6;;;25.06;60.32324
59987;BME280;46181;51.498;5.392;2023-09-18T08:01:30;100271.3;;;25.07;60.12793
59987;BME280;46181;51.498;5.392;2023-09-18T08:06:02;100269.5;;;25.08;59.98828
59987;BME280;46181;51.498;5.392;2023-09-18T08:10:31;100284;;;25.1;59.74805
59987;BME280;46181;51.498;5.392;2023-09-18T08:15:00;100288.1;;;25.07;59.68457
59987;BME280;46181;51.498;5.392;2023-09-18T08:19:31;100282;;;25.03;59.77344
59987;BME280;46181;51.498;5.392;2023-09-18T08:24:00;100295.3;;;25.11;59.85352
59987;BME280;46181;51.498;5.392;2023-09-18T08:28:30;100292.1;;;25.2;59.80762
59987;BME280;46181;51.498;5.392;2023-09-18T08:33:00;100304.7;;;25.3;59.37988
59987;BME280;46181;51.498;5.392;2023-09-18T08:37:30;100317.6;;;25.41;58.63672
59987;BME280;46181;51.498;5.392;2023-09-18T08:42:07;100324;;;25.38;58.62207
59987;BME280;46181;51.498;5.392;2023-09-18T08:46:30;100329.3;;;25.48;58.59961
59987;BME280;46181;51.498;5.392;2023-09-18T08:51:00;100320.4;;;25.54;57.98926
59987;BME280;46181;51.498;5.392;2023-09-18T08:55:31;100315.5;;;25.6;58.01953
59987;BME280;46181;51.498;5.392;2023-09-18T09:00:01;100319.1;;;25.7;58.02148
59987;BME280;46181;51.498;5.392;2023-09-18T09:04:30;100316.1;;;25.8;57.56836
59987;BME280;46181;51.498;5.392;2023-09-18T09:09:00;100317.7;;;25.96;57.34375
59987;BME280;46181;51.498;5.392;2023-09-18T09:13:30;100317.2;;;26.13;57.01563
59987;BME280;46181;51.498;5.392;2023-09-18T09:18:07;100325.7;;;26.34;56.84375
59987;BME280;46181;51.498;5.392;2023-09-18T09:22:32;100332.4;;;26.55;56.3457
59987;BME280;46181;51.498;5.392;2023-09-18T09:27:09;100342;;;26.66;55.74023
59987;BME280;46181;51.498;5.392;2023-09-18T09:31:37;100339.6;;;26.72;55.32617
59987;BME280;46181;51.498;5.392;2023-09-18T09:36:03;100341.6;;;26.73;54.8125
59987;BME280;46181;51.498;5.392;2023-09-18T09:40:32;100345.6;;;26.77;54.61914
59987;BME280;46181;51.498;5.392;2023-09-18T09:45:05;100341.8;;;26.8;54.27246
59987;BME280;46181;51.498;5.392;2023-09-18T09:49:30;100327.3;;;26.85;54.18359
59987;BME280;46181;51.498;5.392;2023-09-18T09:54:00;100328.4;;;26.96;54.53613
59987;BME280;46181;51.498;5.392;2023-09-18T09:58:35;100336;;;26.95;54.30176
59987;BME280;46181;51.498;5.392;2023-09-18T10:03:01;100344.3;;;26.97;53.85938
59987;BME280;46181;51.498;5.392;2023-09-18T10:07:30;100349.7;;;27.01;53.84082
59987;BME280;46181;51.498;5.392;2023-09-18T10:12:03;100358;;;27.14;53.77441
59987;BME280;46181;51.498;5.392;2023-09-18T10:16:32;100366.1;;;27.27;53.4502
59987;BME280;46181;51.498;5.392;2023-09-18T10:21:08;100358.5;;;27.29;53.20703
59987;BME280;46181;51.498;5.392;2023-09-18T10:25:32;100352.5;;;27.24;52.91992
59987;BME280;46181;51.498;5.392;2023-09-18T10:30:01;100362.5;;;27.27;52.94629
59987;BME280;46181;51.498;5.392;2023-09-18T10:34:31;100369.8;;;27.39;52.87891
59987;BME280;46181;51.498;5.392;2023-09-18T10:39:01;100364.9;;;27.45;52.56836
59987;BME280;46181;51.498;5.392;2023-09-18T10:43:30;100371.8;;;27.35;52.29004
59987;BME280;46181;51.498;5.392;2023-09-18T10:48:01;100371.6;;;27.26;52.34863
59987;BME280;46181;51.498;5.392;2023-09-18T10:52:30;100361.4;;;27.27;52.33789
59987;BME280;46181;51.498;5.392;2023-09-18T10:57:01;100357;;;27.34;52.27441
59987;BME280;46181;51.498;5.392;2023-09-18T11:01:32;100343;;;27.46;52.21875
59987;BME280;46181;51.498;5.392;2023-09-18T11:06:11;100341.8;;;27.47;51.92578
59987;BME280;46181;51.498;5.392;2023-09-18T11:10:40;100345.9;;;27.54;51.61914
59987;BME280;46181;51.498;5.392;2023-09-18T11:15:06;100337.9;;;27.64;51.7002
59987;BME280;46181;51.498;5.392;2023-09-18T11:19:31;100355.6;;;27.87;51.22266
59987;BME280;46181;51.498;5.392;2023-09-18T11:24:07;100357.3;;;27.9;50.29883
59987;BME280;46181;51.498;5.392;2023-09-18T11:28:35;100354;;;27.93;50.00879
59987;BME280;46181;51.498;5.392;2023-09-18T11:33:01;100353.8;;;28.02;49.66602
59987;BME280;46181;51.498;5.392;2023-09-18T11:37:34;100362.2;;;28.08;49.91992
59987;BME280;46181;51.498;5.392;2023-09-18T11:42:17;100349.2;;;28.16;49.43457
59987;BME280;46181;51.498;5.392;2023-09-18T11:46:31;100344.7;;;28.38;49.08301
59987;BME280;46181;51.498;5.392;2023-09-18T11:51:01;100355.3;;;28.55;48.23145
59987;BME280;46181;51.498;5.392;2023-09-18T11:55:30;100340.1;;;28.52;47.39355
59987;BME280;46181;51.498;5.392;2023-09-18T12:00:01;100346.3;;;28.45;47.79785
59987;BME280;46181;51.498;5.392;2023-09-18T12:04:36;100335.6;;;28.35;47.58789
59987;BME280;46181;51.498;5.392;2023-09-18T12:09:01;100330.5;;;28.34;47.24512
59987;BME280;46181;51.498;5.392;2023-09-18T12:13:33;100328;;;28.37;47.27148
59987;BME280;46181;51.498;5.392;2023-09-18T12:18:09;100329.8;;;28.39;46.82715
59987;BME280;46181;51.498;5.392;2023-09-18T12:22:36;100324.2;;;28.32;47.10156
59987;BME280;46181;51.498;5.392;2023-09-18T12:27:01;100315.8;;;28.34;46.82129
59987;BME280;46181;51.498;5.392;2023-09-18T12:31:31;100328.8;;;28.32;46.60742
59987;BME280;46181;51.498;5.392;2023-09-18T12:36:01;100318.7;;;28.35;46.1416
59987;BME280;46181;51.498;5.392;2023-09-18T12:40:35;100322;;;28.31;46.4668
59987;BME280;46181;51.498;5.392;2023-09-18T12:45:01;100323.9;;;28.34;46.25684
59987;BME280;46181;51.498;5.392;2023-09-18T12:49:31;100310.8;;;28.38;46.42578
59987;BME280;46181;51.498;5.392;2023-09-18T12:54:07;100300.7;;;28.51;47.09766
59987;BME280;46181;51.498;5.392;2023-09-18T12:58:32;100297.5;;;28.66;46.43164
59987;BME280;46181;51.498;5.392;2023-09-18T13:03:01;100296.5;;;28.75;46.13477
59987;BME280;46181;51.498;5.392;2023-09-18T13:07:31;100287.3;;;28.83;45.56543
59987;BME280;46181;51.498;5.392;2023-09-18T13:12:07;100274.8;;;28.78;45.41895
59987;BME280;46181;51.498;5.392;2023-09-18T13:16:31;100271.7;;;28.74;45.01465
59987;BME280;46181;51.498;5.392;2023-09-18T13:21:08;100256.7;;;28.7;45.35156
59987;BME280;46181;51.498;5.392;2023-09-18T13:25:34;100255.1;;;28.68;45.43359
59987;BME280;46181;51.498;5.392;2023-09-18T13:30:01;100242.5;;;28.66;45.31445
59987;BME280;46181;51.498;5.392;2023-09-18T13:34:31;100242.2;;;28.61;45.34375
59987;BME280;46181;51.498;5.392;2023-09-18T13:39:01;100237.8;;;28.64;45.7002
59987;BME280;46181;51.498;5.392;2023-09-18T13:43:31;100239.1;;;28.72;45.64941
59987;BME280;46181;51.498;5.392;2023-09-18T13:48:01;100237.7;;;28.72;44.94238
59987;BME280;46181;51.498;5.392;2023-09-18T13:52:31;100237.3;;;28.67;44.86621
59987;BME280;46181;51.498;5.392;2023-09-18T13:57:00;100229.4;;;28.68;44.69141
59987;BME280;46181;51.498;5.392;2023-09-18T14:01:31;100227.8;;;28.69;44.7041
59987;BME280;46181;51.498;5.392;2023-09-18T14:06:02;100221.1;;;28.67;44.56152
59987;BME280;46181;51.498;5.392;2023-09-18T14:10:31;100215.6;;;28.76;44.32227
59987;BME280;46181;51.498;5.392;2023-09-18T14:15:01;100196.5;;;28.81;44.13867
59987;BME280;46181;51.498;5.392;2023-09-18T14:19:31;100194.9;;;28.85;43.85938
59987;BME280;46181;51.498;5.392;2023-09-18T14:24:01;100183.7;;;28.84;43.16406
59987;BME280;46181;51.498;5.392;2023-09-18T14:28:31;100175.5;;;28.84;42.52734
59987;BME280;46181;51.498;5.392;2023-09-18T14:33:01;100171.8;;;28.96;42.1377
59987;BME280;46181;51.498;5.392;2023-09-18T14:37:31;100173.8;;;29.05;41.22559
59987;BME280;46181;51.498;5.392;2023-09-18T14:42:01;100168.2;;;29.06;40.74316
59987;BME280;46181;51.498;5.392;2023-09-18T14:46:31;100173.2;;;29.05;40.57715
59987;BME280;46181;51.498;5.392;2023-09-18T14:51:06;100173.5;;;28.97;40.19238
59987;BME280;46181;51.498;5.392;2023-09-18T17:37:31;100275.6;;;22.88;57.47363
59987;BME280;46181;51.498;5.392;2023-09-18T17:42:01;100278.4;;;22.96;57.36816
59987;BME280;46181;51.498;5.392;2023-09-18T17:46:31;100278.2;;;23;57.3623
59987;BME280;46181;51.498;5.392;2023-09-18T17:51:01;100282.4;;;23.03;57.4248
59987;BME280;46181;51.498;5.392;2023-09-18T17:55:31;100282.5;;;23.04;57.44824
59987;BME280;46181;51.498;5.392;2023-09-18T18:00:01;100289.5;;;23.06;57.45117
59987;BME280;46181;51.498;5.392;2023-09-18T18:04:31;100296;;;23.09;57.50195
59987;BME280;46181;51.498;5.392;2023-09-18T18:09:01;100296.5;;;23.13;57.54004
59987;BME280;46181;51.498;5.392;2023-09-18T18:13:31;100297.8;;;23.14;57.55273
59987;BME280;46181;51.498;5.392;2023-09-18T18:18:01;100304.9;;;23.1;57.59473
59987;BME280;46181;51.498;5.392;2023-09-18T18:22:31;100308;;;23.12;57.70117
59987;BME280;46181;51.498;5.392;2023-09-18T18:27:01;100306.8;;;23.14;57.72656
59987;BME280;46181;51.498;5.392;2023-09-18T18:31:31;100311.3;;;23.18;57.73242
59987;BME280;46181;51.498;5.392;2023-09-18T18:36:01;100312.9;;;23.23;57.69238
59987;BME280;46181;51.498;5.392;2023-09-18T18:40:31;100313.6;;;23.25;57.67285
59987;BME280;46181;51.498;5.392;2023-09-18T18:45:01;100310.8;;;23.19;57.71094
59987;BME280;46181;51.498;5.392;2023-09-18T18:49:31;100319;;;23.15;57.83203
59987;BME280;46181;51.498;5.392;2023-09-18T18:54:01;100323.9;;;23.1;57.88477
59987;BME280;46181;51.498;5.392;2023-09-18T18:58:31;100331.6;;;23.06;57.9375
59987;BME280;46181;51.498;5.392;2023-09-18T19:03:01;100332.3;;;23.02;58.00293
59987;BME280;46181;51.498;5.392;2023-09-18T19:07:31;100341.7;;;22.98;58.07813
59987;BME280;46181;51.498;5.392;2023-09-18T19:12:01;100355.1;;;22.93;58.10449
59987;BME280;46181;51.498;5.392;2023-09-18T19:16:31;100357;;;22.87;58.17871
59987;BME280;46181;51.498;5.392;2023-09-18T19:21:01;100371.5;;;22.82;58.26563
59987;BME280;46181;51.498;5.392;2023-09-18T19:25:32;100369.9;;;22.78;58.31738
59987;BME280;46181;51.498;5.392;2023-09-18T19:30:02;100369.2;;;22.74;58.33594
59987;BME280;46181;51.498;5.392;2023-09-18T19:34:31;100378.8;;;22.72;58.31055
59987;BME280;46181;51.498;5.392;2023-09-18T19:39:01;100382;;;22.69;58.27051
59987;BME280;46181;51.498;5.392;2023-09-18T19:43:31;100386.2;;;22.66;58.38281
59987;BME280;46181;51.498;5.392;2023-09-18T19:48:01;100397.6;;;22.64;58.38086
59987;BME280;46181;51.498;5.392;2023-09-18T19:52:31;100407.5;;;22.58;58.32617
59987;BME280;46181;51.498;5.392;2023-09-18T19:57:01;100410;;;22.51;58.39941
59987;BME280;46181;51.498;5.392;2023-09-18T20:01:31;100417;;;22.46;58.3916
59987;BME280;46181;51.498;5.392;2023-09-18T20:06:01;100419.2;;;22.38;58.37012
59987;BME280;46181;51.498;5.392;2023-09-18T20:10:31;100431.8;;;22.29;58.42773
59987;BME280;46181;51.498;5.392;2023-09-18T20:15:01;100430.6;;;22.19;58.27539
59987;BME280;46181;51.498;5.392;2023-09-18T20:19:31;100440.9;;;22.11;58.18359
59987;BME280;46181;51.498;5.392;2023-09-18T20:24:01;100444;;;22.04;58.12891
59987;BME280;46181;51.498;5.392;2023-09-18T20:28:31;100455.1;;;21.99;58.01855
59987;BME280;46181;51.498;5.392;2023-09-18T20:33:01;100460.8;;;21.92;57.88281
59987;BME280;46181;51.498;5.392;2023-09-18T20:37:31;100458;;;21.85;57.84961
59987;BME280;46181;51.498;5.392;2023-09-18T20:42:01;100462.5;;;21.76;57.82813
59987;BME280;46181;51.498;5.392;2023-09-18T20:46:31;100462.6;;;21.71;57.77539
59987;BME280;46181;51.498;5.392;2023-09-18T20:51:01;100469.7;;;21.67;57.73438
59987;BME280;46181;51.498;5.392;2023-09-18T20:55:31;100474.6;;;21.61;57.72754
59987;BME280;46181;51.498;5.392;2023-09-18T21:00:01;100478.3;;;21.58;57.76855
59987;BME280;46181;51.498;5.392;2023-09-18T21:04:31;100489.5;;;21.55;57.75293
59987;BME280;46181;51.498;5.392;2023-09-18T21:09:01;100484.8;;;21.52;58.28027
59987;BME280;46181;51.498;5.392;2023-09-18T21:13:31;100491.5;;;21.47;58.66699
59987;BME280;46181;51.498;5.392;2023-09-18T21:18:01;100502.5;;;21.43;58.83496
59987;BME280;46181;51.498;5.392;2023-09-18T21:22:31;100508.2;;;21.4;59.13184
59987;BME280;46181;51.498;5.392;2023-09-18T21:27:01;100525.5;;;21.36;59.25098
59987;BME280;46181;51.498;5.392;2023-09-18T21:31:31;100519.6;;;21.33;59.28223
59987;BME280;46181;51.498;5.392;2023-09-18T21:36:01;100528.9;;;21.29;59.36816
59987;BME280;46181;51.498;5.392;2023-09-18T21:40:31;100536.6;;;21.24;59.49023
59987;BME280;46181;51.498;5.392;2023-09-18T21:45:01;100537.2;;;21.2;59.41504
59987;BME280;46181;51.498;5.392;2023-09-18T21:49:31;100545.2;;;21.16;59.43262
59987;BME280;46181;51.498;5.392;2023-09-18T21:54:01;100547.8;;;21.13;59.54395
59987;BME280;46181;51.498;5.392;2023-09-18T21:58:31;100551;;;21.09;59.57422
59987;BME280;46181;51.498;5.392;2023-09-18T22:03:01;100557.1;;;21.06;59.61523
59987;BME280;46181;51.498;5.392;2023-09-18T22:07:31;100569.6;;;21.03;59.68066
59987;BME280;46181;51.498;5.392;2023-09-18T22:12:01;100575.6;;;21;59.83789
59987;BME280;46181;51.498;5.392;2023-09-18T22:16:31;100575;;;20.95;60.02734
59987;BME280;46181;51.498;5.392;2023-09-18T22:21:01;100579.7;;;20.92;60.13867
59987;BME280;46181;51.498;5.392;2023-09-18T22:25:31;100585.2;;;20.89;60.31934
59987;BME280;46181;51.498;5.392;2023-09-18T22:30:01;100593.4;;;20.88;60.52441
59987;BME280;46181;51.498;5.392;2023-09-18T22:34:31;100590.6;;;20.84;60.63477
59987;BME280;46181;51.498;5.392;2023-09-18T22:57:01;100613.3;;;20.61;61.13379
59987;BME280;46181;51.498;5.392;2023-09-18T23:01:31;100624.4;;;20.64;61.10254
59987;BME280;46181;51.498;5.392;2023-09-18T23:06:01;100631;;;20.65;61.10449
59987;BME280;46181;51.498;5.392;2023-09-18T23:10:31;100624.5;;;20.64;60.96289
59987;BME280;46181;51.498;5.392;2023-09-18T23:15:01;100627.1;;;20.6;60.95898
59987;BME280;46181;51.498;5.392;2023-09-18T23:19:31;100641.6;;;20.6;60.94629
59987;BME280;46181;51.498;5.392;2023-09-18T23:24:01;100643.5;;;20.56;60.88379
59987;BME280;46181;51.498;5.392;2023-09-18T23:28:31;100650.2;;;20.53;60.86816
59987;BME280;46181;51.498;5.392;2023-09-18T23:33:05;100656.4;;;20.48;60.76953
59987;BME280;46181;51.498;5.392;2023-09-18T23:37:31;100660.2;;;20.5;60.67969
59987;BME280;46181;51.498;5.392;2023-09-18T23:42:01;100663.6;;;20.48;60.49316
59987;BME280;46181;51.498;5.392;2023-09-18T23:46:31;100669.8;;;20.47;60.36523
59987;BME280;46181;51.498;5.392;2023-09-18T23:51:03;100675.8;;;20.43;60.30371
59987;BME280;46181;51.498;5.392;2023-09-18T23:55:31;100677.4;;;20.45;60.15625
